Time;durP1;ratioP1;P1;durP2;ratioP2;P2;SDS_P1;SDS_P2;PMS_P1;PMS_P2;Temp;Humidity;BMP_temperature;BMP_pressure;BME280_temperature;BME280_humidity;BME280_pressure;Samples;Min_cycle;Max_cycle;Signal;HPM_P1;HPM_P2
2022/10/20 00:01:11;;;;;;;0.60;0.30;;;;;;;10.82;57.95;95634.91;5114876;27;20505;-53
2022/10/20 00:03:39;;;;;;;1.17;0.60;;;;;;;11.26;56.26;95637.84;5114751;28;20484;-53
2022/10/20 00:06:11;;;;;;;0.50;0.50;;;;;;;11.46;55.75;95643.94;5114791;28;20544;-53
2022/10/20 00:08:41;;;;;;;0.50;0.30;;;;;;;11.32;55.92;95642.09;5114956;28;20443;-53
2022/10/20 00:11:12;;;;;;;0.40;0.20;;;;;;;11.02;56.69;95648.19;5115018;28;20447;-53
2022/10/20 00:13:42;;;;;;;0.50;0.40;;;;;;;11.36;55.48;95635.19;5114561;27;20441;-53
2022/10/20 00:16:10;;;;;;;0.40;0.30;;;;;;;11.47;55.86;95642.09;5113976;28;20423;-54
2022/10/20 00:18:39;;;;;;;0.40;0.30;;;;;;;11.56;55.35;95650.31;5114827;28;20440;-53
2022/10/20 00:21:12;;;;;;;0.40;0.27;;;;;;;11.57;55.96;95646.59;5114511;28;20426;-53
2022/10/20 00:23:40;;;;;;;0.40;0.30;;;;;;;10.99;56.43;95632.78;5114319;28;20467;-53
2022/10/20 00:26:11;;;;;;;0.60;0.40;;;;;;;10.62;55.86;95539.44;5133336;27;20542;-53
2022/10/20 00:28:41;;;;;;;0.40;0.30;;;;;;;11.42;54.88;95634.13;5134903;27;20433;-53
2022/10/20 00:31:09;;;;;;;0.40;0.20;;;;;;;11.36;55.98;95629.88;5134896;27;20438;-53
2022/10/20 00:33:37;;;;;;;0.40;0.30;;;;;;;11.61;55.73;95640.50;5134774;27;20430;-53
2022/10/20 00:36:08;;;;;;;0.50;0.40;;;;;;;11.06;55.40;95580.28;5135049;27;20421;-53
2022/10/20 00:38:38;;;;;;;0.40;0.30;;;;;;;11.48;55.78;95636.50;5134091;27;20453;-53
2022/10/20 00:41:06;;;;;;;0.40;0.20;;;;;;;11.52;55.61;95647.41;5135239;27;20430;-53
2022/10/20 00:43:47;;;;;;;0.40;0.40;;;;;;;10.78;57.33;95644.41;5135091;27;20433;-53
2022/10/20 00:46:19;;;;;;;0.60;0.40;;;;;;;10.66;58.45;95657.91;5134866;27;20438;-53
2022/10/20 00:48:50;;;;;;;0.40;0.30;;;;;;;10.10;59.72;95651.56;5134893;27;20913;-53
2022/10/20 00:51:22;;;;;;;0.40;0.30;;;;;;;10.84;58.50;95660.09;5135045;27;20423;-53
2022/10/20 00:53:57;;;;;;;0.40;0.30;;;;;;;10.84;57.89;95664.59;5134745;27;20419;-53
2022/10/20 00:56:25;;;;;;;0.40;0.30;;;;;;;10.56;59.63;95665.84;5134502;27;20942;-53
2022/10/20 00:58:54;;;;;;;0.50;0.50;;;;;;;10.91;59.08;95659.03;5134282;27;20430;-53
2022/10/20 01:01:22;;;;;;;0.40;0.30;;;;;;;10.62;59.77;95664.81;5134432;27;20436;-53
2022/10/20 01:03:51;;;;;;;0.40;0.40;;;;;;;10.07;61.73;95652.09;5134571;27;20418;-53
2022/10/20 01:06:22;;;;;;;0.47;0.30;;;;;;;10.65;60.11;95644.94;5134345;27;20437;-53
2022/10/20 01:08:54;;;;;;;0.40;0.20;;;;;;;10.57;59.85;95622.38;5134734;27;20533;-53
2022/10/20 01:11:34;;;;;;;0.60;0.47;;;;;;;10.97;59.90;95642.88;5134286;27;21093;-53
2022/10/20 01:14:20;;;;;;;0.40;0.40;;;;;;;10.77;60.35;95645.50;5134336;27;20905;-53
2022/10/20 01:16:58;;;;;;;0.50;0.30;;;;;;;10.70;58.75;95644.94;5134574;27;20426;-53
2022/10/20 01:20:03;;;;;;;0.50;0.50;;;;;;;10.71;58.57;95647.31;5134400;27;20426;-53
2022/10/20 01:23:06;;;;;;;0.40;0.30;;;;;;;10.24;60.67;95651.94;5111354;27;20438;-53
2022/10/20 01:25:50;;;;;;;12.43;1.87;;;;;;;10.03;62.28;95644.91;5131644;27;20869;-53
2022/10/20 01:28:27;;;;;;;8.13;0.50;;;;;;;9.53;63.61;95640.13;5134370;27;20793;-53
2022/10/20 01:31:00;;;;;;;0.40;0.20;;;;;;;9.58;64.30;95648.09;5134323;27;20428;-53
2022/10/20 01:33:36;;;;;;;1.70;1.60;;;;;;;9.16;65.12;95655.19;5134346;27;20430;-53
2022/10/20 01:36:11;;;;;;;0.40;0.40;;;;;;;9.76;64.27;95652.19;5133923;27;20433;-53
2022/10/20 01:38:44;;;;;;;0.93;0.43;;;;;;;10.13;62.26;95643.16;5133799;27;20425;-53
2022/10/20 01:41:22;;;;;;;0.40;0.40;;;;;;;10.10;61.62;95648.94;5133283;27;20437;-54
2022/10/20 01:43:54;;;;;;;0.40;0.30;;;;;;;9.98;61.47;95658.94;5134146;27;20440;-54
2022/10/20 01:46:25;;;;;;;0.40;0.30;;;;;;;10.15;60.69;95661.41;5133382;27;20477;-53
2022/10/20 01:48:54;;;;;;;0.43;0.30;;;;;;;10.54;60.15;95664.50;5133417;27;20452;-54
2022/10/20 01:51:22;;;;;;;0.40;0.30;;;;;;;10.12;60.39;95662.72;5132949;27;20445;-54
2022/10/20 01:53:50;;;;;;;0.40;0.20;;;;;;;10.05;61.50;95651.56;5133837;27;20433;-54
2022/10/20 01:56:27;;;;;;;0.83;0.57;;;;;;;9.67;62.45;95641.25;5133500;27;20435;-54
2022/10/20 01:59:25;;;;;;;0.53;0.50;;;;;;;9.94;61.66;95649.88;5133564;27;20785;-54
2022/10/20 02:02:06;;;;;;;0.40;0.30;;;;;;;10.27;60.04;95642.69;5126347;27;20805;-54
2022/10/20 02:04:47;;;;;;;0.33;0.20;;;;;;;10.51;58.96;95654.41;5132714;27;20513;-53
2022/10/20 02:07:24;;;;;;;0.40;0.30;;;;;;;10.47;58.89;95629.50;5133585;27;20426;-53
2022/10/20 02:09:59;;;;;;;0.53;0.50;;;;;;;10.54;58.69;95630.06;5133341;27;20426;-53
2022/10/20 02:12:32;;;;;;;0.87;0.87;;;;;;;9.77;61.11;95635.22;5133480;27;20433;-53
2022/10/20 02:15:03;;;;;;;0.50;0.50;;;;;;;10.34;59.28;95644.03;5133079;27;20438;-54
2022/10/20 02:17:35;;;;;;;0.93;0.93;;;;;;;10.01;60.29;95641.72;5133357;27;20433;-53
2022/10/20 02:20:06;;;;;;;0.40;0.30;;;;;;;10.26;60.40;95643.72;5133471;27;20425;-54
2022/10/20 02:22:35;;;;;;;0.37;0.30;;;;;;;10.71;58.77;95635.91;5133358;27;20463;-54
2022/10/20 02:25:04;;;;;;;0.50;0.40;;;;;;;9.90;60.55;95576.53;5132378;27;20982;-53
2022/10/20 02:27:36;;;;;;;0.40;0.20;;;;;;;10.18;60.88;95653.75;5132935;27;20429;-53
2022/10/20 02:30:08;;;;;;;0.60;0.60;;;;;;;10.39;60.94;95659.97;5133055;27;20430;-53
2022/10/20 02:32:39;;;;;;;0.87;0.87;;;;;;;10.51;59.70;95663.16;5132323;27;20444;-54
2022/10/20 02:35:11;;;;;;;0.50;0.40;;;;;;;10.55;59.62;95668.75;5133013;27;20429;-54
2022/10/20 02:37:39;;;;;;;0.77;0.50;;;;;;;9.99;62.47;95683.56;5132859;27;20437;-54
2022/10/20 02:40:08;;;;;;;0.30;0.20;;;;;;;10.19;60.49;95686.34;5132894;27;20422;-54
2022/10/20 02:42:39;;;;;;;0.40;0.20;;;;;;;10.16;60.40;95689.50;5133077;27;20427;-54
2022/10/20 02:45:10;;;;;;;0.40;0.20;;;;;;;10.40;60.06;95687.25;5133028;27;20488;-53
2022/10/20 02:47:38;;;;;;;0.97;0.97;;;;;;;10.32;60.38;95691.19;5132474;27;20426;-53
2022/10/20 02:50:08;;;;;;;0.40;0.30;;;;;;;10.52;62.63;95682.53;5132733;27;20421;-53
2022/10/20 02:52:36;;;;;;;0.70;0.70;;;;;;;10.19;60.89;95686.34;5132289;27;20441;-53
2022/10/20 02:55:06;;;;;;;0.40;0.40;;;;;;;9.78;62.22;95687.94;5132119;27;20440;-53
2022/10/20 02:57:34;;;;;;;0.50;0.30;;;;;;;9.83;61.84;95689.81;5133006;27;20416;-53
2022/10/20 03:00:04;;;;;;;0.93;0.93;;;;;;;9.52;63.01;95694.88;5132032;27;20474;-53
2022/10/20 03:02:34;;;;;;;0.70;0.70;;;;;;;10.03;62.24;95689.94;5132188;27;20444;-53
2022/10/20 03:05:03;;;;;;;0.73;0.30;;;;;;;9.28;64.12;95695.47;5132774;27;20821;-54
2022/10/20 03:07:31;;;;;;;0.40;0.30;;;;;;;9.87;63.66;95691.69;5132898;27;20441;-53
2022/10/20 03:10:00;;;;;;;1.03;0.50;;;;;;;9.97;62.00;95694.41;5132546;27;20418;-53
2022/10/20 03:12:28;;;;;;;0.40;0.20;;;;;;;9.98;61.53;95696.00;5132853;27;20443;-53
2022/10/20 03:14:59;;;;;;;0.50;0.40;;;;;;;10.16;61.40;95698.25;5132639;27;20504;-53
2022/10/20 03:17:27;;;;;;;0.40;0.30;;;;;;;10.20;61.82;95699.34;5132679;27;20821;-53
2022/10/20 03:19:58;;;;;;;0.40;0.30;;;;;;;9.48;61.19;95542.19;5132017;27;20426;-53
2022/10/20 03:22:26;;;;;;;0.87;0.50;;;;;;;10.37;60.69;95677.97;5132507;27;20429;-53
2022/10/20 03:24:59;;;;;;;0.40;0.20;;;;;;;10.35;59.76;95695.19;5132176;27;20485;-53
2022/10/20 03:27:28;;;;;;;0.30;0.20;;;;;;;10.15;60.08;95704.59;5132347;27;20426;-53
2022/10/20 03:29:56;;;;;;;0.40;0.20;;;;;;;10.38;60.53;95694.63;5132352;27;20460;-53
2022/10/20 03:32:24;;;;;;;2.20;0.40;;;;;;;9.92;60.36;95698.84;5132013;27;20430;-53
2022/10/20 03:34:53;;;;;;;0.50;0.40;;;;;;;10.16;59.76;95708.84;5131989;27;20445;-53
2022/10/20 03:37:22;;;;;;;0.53;0.50;;;;;;;10.08;59.84;95703.19;5131655;27;20503;-54
2022/10/20 03:39:51;;;;;;;0.40;0.20;;;;;;;10.28;59.85;95705.19;5132056;27;20422;-54
2022/10/20 03:42:19;;;;;;;0.50;0.40;;;;;;;10.01;60.68;95707.94;5132316;27;20433;-54
2022/10/20 03:44:47;;;;;;;0.40;0.30;;;;;;;9.85;61.39;95714.16;5131967;27;20437;-54
2022/10/20 03:47:15;;;;;;;0.40;0.40;;;;;;;10.04;60.86;95718.03;5131819;27;20995;-54
2022/10/20 03:49:44;;;;;;;0.60;0.53;;;;;;;9.64;62.14;95715.88;5131952;27;20767;-54
2022/10/20 03:52:12;;;;;;;4.83;0.80;;;;;;;9.21;63.77;95722.13;5131918;27;20441;-54
2022/10/20 03:54:42;;;;;;;1.43;0.83;;;;;;;9.42;63.19;95717.81;5132072;27;20437;-54
2022/10/20 03:57:10;;;;;;;0.47;0.43;;;;;;;9.38;63.14;95727.31;5131831;27;20428;-54
2022/10/20 03:59:38;;;;;;;15.47;0.40;;;;;;;8.97;64.51;95731.41;5133442;27;20425;-54
2022/10/20 04:02:06;;;;;;;1.23;0.83;;;;;;;8.59;66.02;95724.38;5135850;27;20442;-54
2022/10/20 04:04:35;;;;;;;0.70;0.70;;;;;;;8.98;65.03;95730.34;5135617;27;20428;-54
2022/10/20 04:07:03;;;;;;;0.40;0.30;;;;;;;9.12;64.30;95728.13;5135691;27;20470;-54
2022/10/20 04:09:31;;;;;;;0.60;0.50;;;;;;;9.11;64.53;95729.19;5135475;27;20441;-54
2022/10/20 04:12:01;;;;;;;0.70;0.53;;;;;;;8.84;65.21;95737.06;5135509;27;20418;-53
2022/10/20 04:14:30;;;;;;;0.50;0.47;;;;;;;8.62;66.78;95734.47;5135548;27;20426;-53
2022/10/20 04:16:58;;;;;;;1.00;1.00;;;;;;;8.64;66.97;95731.56;5135394;27;20427;-53
2022/10/20 04:19:26;;;;;;;0.40;0.40;;;;;;;8.67;66.77;95733.72;5134879;27;20448;-53
2022/10/20 04:21:54;;;;;;;0.77;0.77;;;;;;;8.91;65.72;95732.38;5135060;27;20430;-53
2022/10/20 04:24:23;;;;;;;0.40;0.40;;;;;;;9.02;65.19;95733.28;5134912;27;20465;-53
2022/10/20 04:26:51;;;;;;;0.63;0.63;;;;;;;8.87;65.71;95740.03;5135042;27;20476;-53
2022/10/20 04:29:21;;;;;;;0.47;0.30;;;;;;;8.57;67.13;95747.59;5134764;27;20432;-54
2022/10/20 04:31:49;;;;;;;8.10;1.90;;;;;;;8.05;70.25;95743.69;5135012;27;20414;-54
2022/10/20 04:34:18;;;;;;;0.50;0.40;;;;;;;7.93;68.68;95661.19;5134767;27;20430;-53
2022/10/20 04:36:46;;;;;;;0.50;0.50;;;;;;;8.54;68.65;95757.84;5134720;27;20418;-54
2022/10/20 04:39:14;;;;;;;0.70;0.70;;;;;;;8.40;68.88;95754.00;5135134;27;20521;-54
2022/10/20 04:41:43;;;;;;;0.50;0.50;;;;;;;8.48;68.74;95751.72;5134697;27;20422;-53
2022/10/20 04:44:11;;;;;;;5.60;0.90;;;;;;;8.03;71.31;95754.50;5134993;27;20414;-53
2022/10/20 04:46:41;;;;;;;0.60;0.60;;;;;;;8.30;69.95;95759.91;5134569;27;20830;-54
2022/10/20 04:49:09;;;;;;;3.67;3.33;;;;;;;8.49;68.29;95766.53;5134505;27;20438;-53
2022/10/20 04:51:38;;;;;;;6.13;1.87;;;;;;;8.78;67.16;95769.75;5134211;27;20480;-53
2022/10/20 04:54:06;;;;;;;0.40;0.30;;;;;;;8.77;66.84;95763.72;5134314;27;20426;-53
2022/10/20 04:56:34;;;;;;;0.40;0.40;;;;;;;8.75;66.86;95765.78;5134221;27;20438;-59
2022/10/20 04:59:04;;;;;;;0.40;0.40;;;;;;;8.97;65.63;95770.25;5134350;27;20429;-53
2022/10/20 05:01:38;;;;;;;1.40;0.60;;;;;;;8.76;66.42;95770.03;5134260;27;20425;-53
2022/10/20 05:04:09;;;;;;;1.83;1.73;;;;;;;8.00;70.42;95777.94;5134126;27;20438;-53
2022/10/20 05:06:37;;;;;;;0.40;0.40;;;;;;;8.05;72.42;95778.00;5134154;27;20480;-53
2022/10/20 05:09:08;;;;;;;1.43;0.83;;;;;;;7.57;72.72;95689.69;5134256;27;20433;-54
2022/10/20 05:11:37;;;;;;;0.80;0.80;;;;;;;8.72;69.76;95786.63;5133284;27;20545;-53
2022/10/20 05:14:06;;;;;;;2.03;1.83;;;;;;;8.92;67.17;95782.38;5134552;27;20446;-53
2022/10/20 05:16:35;;;;;;;1.17;1.17;;;;;;;8.94;66.20;95760.97;5134449;27;20441;-53
2022/10/20 05:19:03;;;;;;;1.67;1.57;;;;;;;9.21;65.92;95782.16;5134010;27;20445;-53
2022/10/20 05:21:33;;;;;;;4.63;3.90;;;;;;;7.59;71.24;95790.50;5132929;27;20434;-53
2022/10/20 05:24:04;;;;;;;3.03;2.73;;;;;;;7.87;73.69;95807.31;5133383;27;20456;-53
2022/10/20 05:26:36;;;;;;;6.77;6.23;;;;;;;7.56;72.63;95813.91;5133838;27;20551;-53
2022/10/20 05:29:06;;;;;;;3.97;3.77;;;;;;;7.09;74.11;95825.69;5134166;27;20922;-53
2022/10/20 05:31:38;;;;;;;19.33;4.63;;;;;;;6.72;79.18;95833.13;5133646;27;20964;-53
2022/10/20 05:34:06;;;;;;;1.93;1.47;;;;;;;7.16;80.27;95835.06;5133998;27;20430;-53
2022/10/20 05:36:37;;;;;;;1.27;1.10;;;;;;;7.97;72.82;95775.81;5133587;27;20433;-53
2022/10/20 05:39:05;;;;;;;2.30;2.20;;;;;;;9.21;67.35;95833.19;5133662;27;20432;-53
2022/10/20 05:41:34;;;;;;;1.83;1.73;;;;;;;9.06;66.50;95751.06;5133570;27;20437;-53
2022/10/20 05:44:08;;;;;;;0.83;0.83;;;;;;;9.98;64.29;95830.25;5133457;27;20438;-53
2022/10/20 05:46:40;;;;;;;1.47;1.37;;;;;;;9.96;64.08;95840.28;5133608;27;20465;-53
2022/10/20 05:49:12;;;;;;;2.40;2.30;;;;;;;9.79;65.05;95840.41;5133745;27;20440;-53
2022/10/20 05:51:43;;;;;;;3.63;1.53;;;;;;;10.25;64.14;95832.84;5133179;27;20445;-53
2022/10/20 05:54:12;;;;;;;1.40;1.30;;;;;;;10.23;63.26;95825.16;5133080;27;20525;-54
2022/10/20 05:56:41;;;;;;;5.73;2.97;;;;;;;10.49;63.03;95842.03;5133246;27;20422;-54
2022/10/20 05:59:10;;;;;;;2.80;2.60;;;;;;;10.50;63.16;95846.31;5133521;27;20494;-55
2022/10/20 06:01:46;;;;;;;1.90;1.80;;;;;;;11.31;61.55;95852.78;5133221;27;20430;-55
2022/10/20 06:04:17;;;;;;;1.30;1.20;;;;;;;11.85;59.83;95847.91;5133349;27;20425;-54
2022/10/20 06:06:48;;;;;;;3.57;1.83;;;;;;;12.14;58.97;95861.50;5133068;27;20481;-55
2022/10/20 06:09:17;;;;;;;3.77;1.33;;;;;;;12.49;58.31;95861.47;5133320;27;20422;-55
2022/10/20 06:11:45;;;;;;;5.03;1.13;;;;;;;13.17;56.19;95860.03;5133056;27;20967;-55
2022/10/20 06:14:14;;;;;;;2.30;1.10;;;;;;;13.11;54.63;95792.72;5132657;27;20440;-56
2022/10/20 06:16:42;;;;;;;9.50;1.87;;;;;;;13.90;53.90;95858.31;5132708;27;20548;-56
2022/10/20 06:19:11;;;;;;;0.70;0.60;;;;;;;14.46;53.20;95861.41;5133162;27;20811;-54
2022/10/20 06:21:39;;;;;;;3.47;1.83;;;;;;;14.64;53.42;95847.38;5132609;27;20893;-54
2022/10/20 06:24:10;;;;;;;0.70;0.57;;;;;;;15.59;50.62;95855.41;5131736;27;20523;-53
2022/10/20 06:26:39;;;;;;;0.53;0.53;;;;;;;15.38;50.47;95860.16;5132474;27;20798;-54
2022/10/20 06:29:11;;;;;;;0.57;0.50;;;;;;;15.78;49.27;95861.56;5132677;27;20440;-54
2022/10/20 06:31:42;;;;;;;4.20;1.77;;;;;;;15.59;50.54;95864.22;5132645;27;20439;-55
2022/10/20 06:34:13;;;;;;;3.93;1.03;;;;;;;15.90;49.83;95869.94;5132046;27;20421;-54
2022/10/20 06:36:42;;;;;;;0.70;0.50;;;;;;;16.39;47.76;95872.16;5132650;27;20436;-54
2022/10/20 06:39:15;;;;;;;2.10;0.90;;;;;;;16.77;47.42;95867.53;5132531;27;20811;-55
2022/10/20 06:41:46;;;;;;;2.50;2.27;;;;;;;16.51;47.00;95856.44;5132619;27;20421;-55
2022/10/20 06:44:14;;;;;;;3.00;2.10;;;;;;;15.94;48.31;95881.63;5132511;27;20948;-55
2022/10/20 06:46:43;;;;;;;1.07;1.07;;;;;;;16.00;48.77;95872.47;5132390;27;20441;-55
2022/10/20 06:49:11;;;;;;;1.33;1.23;;;;;;;16.85;47.57;95859.59;5132269;27;20425;-55
2022/10/20 06:51:40;;;;;;;17.03;1.40;;;;;;;16.56;47.93;95883.16;5132684;27;20434;-56
2022/10/20 06:54:09;;;;;;;11.73;3.30;;;;;;;16.05;49.22;95875.06;5132386;27;20451;-56
2022/10/20 06:56:39;;;;;;;7.70;1.53;;;;;;;16.41;48.88;95872.66;5132446;27;20448;-56
2022/10/20 06:59:08;;;;;;;0.77;0.73;;;;;;;17.63;47.52;95864.03;5132346;27;20435;-55
2022/10/20 07:01:38;;;;;;;2.20;2.00;;;;;;;18.10;45.77;95852.00;5131701;27;20448;-55
2022/10/20 07:04:10;;;;;;;2.20;2.00;;;;;;;18.34;46.04;95869.41;5132095;27;20426;-56
2022/10/20 07:06:40;;;;;;;2.33;1.20;;;;;;;19.16;44.84;95858.22;5132340;27;20431;-55
2022/10/20 07:09:13;;;;;;;2.07;1.97;;;;;;;18.09;45.44;95871.91;5132614;27;20476;-55
2022/10/20 07:11:43;;;;;;;1.97;1.87;;;;;;;18.27;45.26;95857.50;5132202;27;20423;-55
2022/10/20 07:14:13;;;;;;;4.20;2.80;;;;;;;19.15;43.78;95859.31;5131859;27;20433;-54
2022/10/20 07:16:41;;;;;;;4.10;2.90;;;;;;;19.25;44.25;95856.34;5132476;27;20494;-54
2022/10/20 07:19:10;;;;;;;6.30;2.77;;;;;;;19.47;43.56;95858.22;5132283;27;20488;-54
2022/10/20 07:21:41;;;;;;;3.57;2.67;;;;;;;19.73;42.99;95848.31;5132223;27;20427;-55
2022/10/20 07:24:13;;;;;;;3.10;2.00;;;;;;;19.26;43.18;95854.47;5131737;27;20476;-52
2022/10/20 07:26:43;;;;;;;2.40;1.20;;;;;;;19.62;43.19;95857.78;5131515;27;20524;-52
2022/10/20 07:29:12;;;;;;;3.27;2.43;;;;;;;19.71;42.21;95857.81;5132007;27;20476;-55
2022/10/20 07:31:42;;;;;;;1.63;1.53;;;;;;;19.34;42.84;95861.78;5132149;27;20428;-57
2022/10/20 07:34:13;;;;;;;3.87;1.30;;;;;;;19.22;43.20;95857.00;5132722;27;20439;-56
2022/10/20 07:36:53;;;;;;;2.83;2.27;;;;;;;19.48;43.04;95854.44;5136241;27;20817;-55
2022/10/20 07:39:22;;;;;;;1.30;1.20;;;;;;;20.16;42.15;95859.13;5135981;27;20430;-54
2022/10/20 07:41:52;;;;;;;2.20;1.83;;;;;;;18.38;44.89;95870.38;5136186;27;20429;-54
2022/10/20 07:44:20;;;;;;;6.23;1.23;;;;;;;19.72;43.06;95856.69;5135813;27;20418;-54
2022/10/20 07:46:49;;;;;;;3.70;0.50;;;;;;;21.55;40.56;95850.44;5136041;27;20453;-55
2022/10/20 07:49:17;;;;;;;3.77;2.07;;;;;;;21.25;40.04;95841.56;5135626;27;20473;-55
2022/10/20 07:52:06;;;;;;;2.13;1.93;;;;;;;21.69;41.14;95842.91;5135241;27;20516;-54
2022/10/20 07:54:34;;;;;;;2.30;1.63;;;;;;;22.11;39.76;95855.38;5135893;27;20778;-54
2022/10/20 07:57:04;;;;;;;2.53;0.77;;;;;;;22.59;38.54;95842.06;5135461;27;20440;-54
2022/10/20 07:59:32;;;;;;;4.70;1.10;;;;;;;23.00;37.65;95841.19;5134700;27;20491;-54
2022/10/20 08:02:01;;;;;;;3.37;1.87;;;;;;;21.01;39.53;95785.47;5135760;27;20783;-55
2022/10/20 08:04:30;;;;;;;1.10;1.10;;;;;;;21.00;39.93;95840.47;5135891;27;20792;-55
2022/10/20 08:06:59;;;;;;;2.97;1.00;;;;;;;21.87;39.19;95842.50;5134423;27;20991;-54
2022/10/20 08:09:27;;;;;;;0.67;0.67;;;;;;;20.88;39.89;95838.47;5135498;27;20467;-54
2022/10/20 08:11:56;;;;;;;1.30;1.23;;;;;;;21.19;40.05;95834.75;5135389;27;20454;-54
2022/10/20 08:14:30;;;;;;;6.70;1.20;;;;;;;22.41;38.79;95840.66;5135250;27;20423;-54
2022/10/20 08:16:59;;;;;;;0.77;0.77;;;;;;;23.51;37.33;95834.41;5135016;27;20429;-54
2022/10/20 08:19:30;;;;;;;1.50;0.80;;;;;;;22.69;37.52;95835.50;5135382;27;20433;-54
2022/10/20 08:22:18;;;;;;;4.10;0.90;;;;;;;23.47;37.98;95820.00;5135514;27;20423;-55
2022/10/20 08:24:46;;;;;;;0.67;0.50;;;;;;;23.69;37.08;95824.94;5134789;27;21000;-55
2022/10/20 08:27:14;;;;;;;1.17;1.17;;;;;;;23.83;36.14;95765.03;5135106;27;20463;-55
2022/10/20 08:29:44;;;;;;;1.73;0.90;;;;;;;24.54;35.64;95811.19;5134891;27;20986;-55
2022/10/20 08:32:32;;;;;;;0.70;0.70;;;;;;;24.85;34.37;95808.56;5134816;27;20434;-56
2022/10/20 08:35:01;;;;;;;1.93;1.73;;;;;;;24.86;34.79;95803.94;5134901;27;20434;-53
2022/10/20 08:37:30;;;;;;;0.73;0.73;;;;;;;25.27;34.73;95795.31;5135064;27;20427;-55
2022/10/20 08:39:58;;;;;;;1.03;0.80;;;;;;;24.82;35.26;95793.00;5134949;27;20407;-54
2022/10/20 08:42:27;;;;;;;2.07;0.93;;;;;;;25.13;35.38;95803.06;5134613;27;20484;-55
2022/10/20 08:45:00;;;;;;;0.60;0.57;;;;;;;25.96;34.85;95791.09;5134975;27;20427;-55
2022/10/20 08:47:33;;;;;;;0.70;0.70;;;;;;;26.59;33.57;95797.81;5133769;27;20419;-57
2022/10/20 08:50:03;;;;;;;4.10;1.60;;;;;;;26.26;33.45;95781.28;5134721;27;20502;-54
2022/10/20 08:52:32;;;;;;;0.97;0.67;;;;;;;26.96;33.17;95781.84;5134412;27;20431;-52
2022/10/20 08:55:04;;;;;;;3.63;0.57;;;;;;;26.89;32.87;95787.94;5134347;27;20423;-52
2022/10/20 08:57:35;;;;;;;1.77;1.70;;;;;;;25.87;33.22;95783.13;5134365;27;20434;-52
2022/10/20 09:00:16;;;;;;;3.37;2.43;;;;;;;26.85;33.79;95781.66;5134518;27;20438;-52
2022/10/20 09:02:44;;;;;;;0.80;0.70;;;;;;;26.42;32.91;95780.03;5134247;27;20419;-53
2022/10/20 09:05:15;;;;;;;3.43;1.70;;;;;;;26.40;33.09;95765.25;5134550;27;20450;-53
2022/10/20 09:07:48;;;;;;;1.00;1.00;;;;;;;26.38;34.51;95775.69;5133117;27;20426;-53
2022/10/20 09:10:31;;;;;;;1.03;0.93;;;;;;;26.40;33.14;95771.47;5134448;27;20469;-53
2022/10/20 09:13:00;;;;;;;2.80;2.60;;;;;;;26.52;33.11;95769.72;5134199;27;20423;-53
2022/10/20 09:15:30;;;;;;;0.77;0.77;;;;;;;27.09;34.44;95764.19;5133971;27;20942;-53
2022/10/20 09:18:01;;;;;;;0.90;0.90;;;;;;;27.85;31.77;95767.72;5133873;27;20431;-53
2022/10/20 09:20:33;;;;;;;1.27;1.17;;;;;;;28.25;32.11;95767.88;5133933;27;20529;-53
2022/10/20 09:23:02;;;;;;;0.90;0.90;;;;;;;29.02;31.33;95769.91;5133578;27;20438;-53
2022/10/20 09:25:45;;;;;;;0.77;0.77;;;;;;;29.88;29.40;95767.50;5133708;27;20569;-52
2022/10/20 09:28:23;;;;;;;0.93;0.83;;;;;;;28.47;29.88;95771.63;5134268;27;20808;-53
2022/10/20 09:30:52;;;;;;;0.63;0.63;;;;;;;28.54;31.21;95764.31;5134067;27;20454;-53
2022/10/20 09:33:28;;;;;;;0.50;0.50;;;;;;;28.94;31.75;95758.13;5133796;27;20431;-53
2022/10/20 09:36:04;;;;;;;1.17;0.93;;;;;;;28.87;30.73;95753.38;5134034;27;20423;-53
2022/10/20 09:38:35;;;;;;;2.43;0.87;;;;;;;29.00;30.24;95750.38;5134207;27;20433;-53
2022/10/20 09:41:10;;;;;;;0.87;0.50;;;;;;;29.28;29.49;95750.63;5133819;27;20414;-53
2022/10/20 09:43:41;;;;;;;0.53;0.50;;;;;;;30.27;29.58;95754.00;5133994;27;20426;-53
2022/10/20 09:46:11;;;;;;;0.73;0.73;;;;;;;29.52;29.29;95745.34;5133820;27;20419;-53
2022/10/20 09:48:46;;;;;;;0.90;0.90;;;;;;;28.45;29.84;95752.91;5133319;27;20466;-52
2022/10/20 09:51:18;;;;;;;0.97;0.97;;;;;;;28.07;30.10;95754.03;5133804;27;20426;-53
2022/10/20 09:53:55;;;;;;;0.87;0.80;;;;;;;28.20;29.99;95751.84;5133235;27;20434;-53
2022/10/20 09:56:25;;;;;;;0.50;0.40;;;;;;;29.69;28.24;95751.31;5133608;27;20423;-53
2022/10/20 09:58:55;;;;;;;0.50;0.47;;;;;;;30.17;27.57;95750.84;5133022;27;20433;-54
2022/10/20 10:01:25;;;;;;;1.07;0.97;;;;;;;28.07;28.86;95750.50;5133005;27;20810;-54
2022/10/20 10:03:58;;;;;;;0.67;0.50;;;;;;;28.81;28.75;95743.97;5133504;27;20478;-53
2022/10/20 10:06:30;;;;;;;1.10;1.10;;;;;;;28.99;27.94;95744.16;5133192;27;20457;-54
2022/10/20 10:09:00;;;;;;;0.60;0.60;;;;;;;28.83;28.27;95736.19;5133080;27;20485;-54
2022/10/20 10:11:35;;;;;;;0.50;0.50;;;;;;;28.51;28.00;95743.25;5133080;27;20431;-54
2022/10/20 10:14:05;;;;;;;0.87;0.87;;;;;;;28.82;27.50;95731.88;5133361;27;20440;-54
2022/10/20 10:16:43;;;;;;;0.80;0.70;;;;;;;30.17;28.38;95728.19;5133256;27;20427;-54
2022/10/20 10:19:19;;;;;;;1.57;0.50;;;;;;;30.94;25.79;95727.63;5133165;27;20430;-58
2022/10/20 10:21:53;;;;;;;1.63;0.87;;;;;;;31.12;25.88;95722.94;5133106;27;20433;-58
2022/10/20 10:24:39;;;;;;;1.00;0.97;;;;;;;30.86;26.53;95712.38;5132745;27;20477;-58
2022/10/20 10:27:20;;;;;;;0.70;0.70;;;;;;;29.31;26.28;95618.81;5132979;27;20498;-58
2022/10/20 10:29:49;;;;;;;0.70;0.70;;;;;;;30.82;26.37;95708.81;5133004;27;20481;-58
2022/10/20 10:32:23;;;;;;;0.70;0.70;;;;;;;32.60;25.87;95702.63;5133193;27;20434;-58
2022/10/20 10:35:08;;;;;;;0.50;0.50;;;;;;;32.63;24.46;95696.34;5132724;27;20426;-58
2022/10/20 10:37:38;;;;;;;0.50;0.50;;;;;;;31.97;24.62;95700.91;5132855;27;20434;-57
2022/10/20 10:40:15;;;;;;;0.40;0.40;;;;;;;32.53;26.27;95689.75;5132500;27;20430;-57
2022/10/20 10:43:00;;;;;;;0.40;0.37;;;;;;;32.37;24.17;95694.09;5132754;27;20430;-57
2022/10/20 10:45:45;;;;;;;0.93;0.90;;;;;;;32.74;24.13;95690.78;5132415;27;20434;-57
2022/10/20 10:48:53;;;;;;;0.40;0.30;;;;;;;32.75;23.89;95681.34;5132287;27;20806;-57
2022/10/20 10:51:31;;;;;;;0.60;0.30;;;;;;;33.20;23.23;95682.97;5123785;27;20438;-57
2022/10/20 10:54:13;;;;;;;0.60;0.60;;;;;;;32.68;24.73;95678.66;5132738;27;20434;-57
2022/10/20 10:56:46;;;;;;;0.70;0.70;;;;;;;32.57;23.54;95654.81;5132934;27;20429;-58
2022/10/20 10:59:21;;;;;;;3.93;0.97;;;;;;;32.88;23.28;95663.22;5132538;27;20426;-58
2022/10/20 11:02:34;;;;;;;0.70;0.50;;;;;;;32.73;22.92;95667.25;5132912;27;20430;-58
2022/10/20 11:05:22;;;;;;;0.43;0.43;;;;;;;32.35;23.22;95658.06;5117404;27;20537;-58
2022/10/20 11:08:01;;;;;;;0.57;0.57;;;;;;;31.86;23.34;95640.63;5132484;27;20937;-58
2022/10/20 11:10:36;;;;;;;0.90;0.73;;;;;;;32.97;23.16;95645.09;5135122;27;20554;-57
2022/10/20 11:13:25;;;;;;;0.50;0.50;;;;;;;34.65;22.66;95629.84;5136781;27;20414;-57
2022/10/20 11:16:06;;;;;;;0.97;0.97;;;;;;;32.92;22.33;95652.97;5136702;27;20507;-57
2022/10/20 11:18:54;;;;;;;0.50;0.40;;;;;;;33.32;24.89;95646.00;5136470;27;20426;-65
2022/10/20 11:21:34;;;;;;;2.30;0.40;;;;;;;34.52;22.02;95648.09;5136957;27;20418;-66
2022/10/20 11:24:35;;;;;;;0.40;0.40;;;;;;;34.91;21.21;95640.06;5136326;27;20433;-52
2022/10/20 11:27:09;;;;;;;0.70;0.70;;;;;;;32.72;23.28;95627.25;5136308;27;20426;-52
2022/10/20 11:29:42;;;;;;;1.13;1.13;;;;;;;32.92;24.05;95633.75;5135918;27;20466;-52
2022/10/20 11:32:21;;;;;;;0.90;0.90;;;;;;;33.40;22.50;95633.72;5136202;27;20414;-52
2022/10/20 11:34:59;;;;;;;0.80;0.50;;;;;;;33.70;23.01;95625.59;5136177;27;20437;-52
2022/10/20 11:37:31;;;;;;;0.70;0.50;;;;;;;32.80;22.10;95626.00;5136321;27;20437;-52
2022/10/20 11:40:13;;;;;;;0.57;0.40;;;;;;;33.03;24.31;95626.22;5135956;27;20498;-52
2022/10/20 11:42:46;;;;;;;0.70;0.57;;;;;;;34.55;20.77;95628.03;5135194;27;20553;-52
2022/10/20 11:45:37;;;;;;;0.40;0.37;;;;;;;33.92;22.18;95618.63;5136085;27;20426;-53
2022/10/20 11:48:14;;;;;;;0.40;0.30;;;;;;;32.60;21.21;95526.97;5135809;27;20414;-52
2022/10/20 11:50:44;;;;;;;1.03;1.00;;;;;;;31.25;22.87;95622.78;5136073;27;20565;-52
2022/10/20 11:53:38;;;;;;;0.73;0.73;;;;;;;31.51;23.59;95631.75;5135792;27;20434;-52
2022/10/20 11:56:28;;;;;;;0.60;0.43;;;;;;;32.38;22.25;95619.63;5136053;27;20433;-52
2022/10/20 11:59:21;;;;;;;0.40;0.30;;;;;;;33.75;21.28;95617.66;5135706;27;20944;-52